Time;durP1;ratioP1;P1;durP2;ratioP2;P2;SDS_P1;SDS_P2;PMS_P1;PMS_P2;Temp;Humidity;BMP_temperature;BMP_pressure;BME280_temperature;BME280_humidity;BME280_pressure;Samples;Min_cycle;Max_cycle;Signal;HPM_P1;HPM_P2
2023/02/12 00:04:41;;;;;;;12.02;7.97;;;;;;;;;;10368844;28;20045;-55
2023/02/12 00:09:41;;;;;;;11.32;7.95;;;;;;;;;;10368848;28;20022;-56
2023/02/12 00:14:42;;;;;;;11.73;7.28;;;;;;;;;;10368693;28;20037;-56
2023/02/12 00:19:43;;;;;;;9.82;7.55;;;;;;;;;;10369220;28;20022;-56
2023/02/12 00:24:43;;;;;;;12.50;7.82;;;;;;;;;;10368823;28;20041;-56
2023/02/12 00:29:44;;;;;;;11.70;7.10;;;;;;;;;;10367969;28;20045;-58
2023/02/12 00:34:46;;;;;;;12.00;7.75;;;;;;;;;;10368509;28;20058;-57
2023/02/12 00:39:46;;;;;;;12.48;7.82;;;;;;;;;;10367854;28;20045;-57
2023/02/12 00:44:47;;;;;;;10.68;7.63;;;;;;;;;;10368249;28;20025;-57
2023/02/12 00:49:47;;;;;;;13.23;8.00;;;;;;;;;;10368261;28;20033;-56
2023/02/12 00:54:48;;;;;;;11.93;7.45;;;;;;;;;;10366718;28;20056;-57
2023/02/12 00:59:48;;;;;;;11.15;7.20;;;;;;;;;;10368271;28;20030;-56
2023/02/12 01:04:49;;;;;;;9.40;7.18;;;;;;;;;;10366587;28;20025;-56
2023/02/12 01:09:50;;;;;;;11.20;7.13;;;;;;;;;;10350425;28;20428;-57
2023/02/12 01:14:51;;;;;;;12.82;7.45;;;;;;;;;;10354545;28;20033;-56
2023/02/12 01:19:57;;;;;;;10.52;6.68;;;;;;;;;;10366661;28;20052;-56
2023/02/12 01:24:57;;;;;;;10.77;7.13;;;;;;;;;;10363008;28;20389;-56
2023/02/12 01:29:58;;;;;;;11.23;6.82;;;;;;;;;;10366383;28;20038;-56
2023/02/12 01:34:59;;;;;;;12.02;7.20;;;;;;;;;;10366626;28;20050;-56
2023/02/12 01:39:59;;;;;;;12.88;7.68;;;;;;;;;;10363109;28;20095;-57
2023/02/12 01:45:12;;;;;;;12.00;6.80;;;;;;;;;;10365704;28;20041;-57
2023/02/12 01:50:20;;;;;;;11.02;7.47;;;;;;;;;;10360935;28;20026;-57
2023/02/12 01:55:21;;;;;;;10.75;7.15;;;;;;;;;;10364424;28;20037;-56
2023/02/12 02:00:23;;;;;;;13.15;7.78;;;;;;;;;;10365424;28;20105;-57
2023/02/12 02:06:01;;;;;;;11.05;7.75;;;;;;;;;;10363854;28;20057;-58
2023/02/12 02:14:31;;;;;;;10.23;7.50;;;;;;;;;;10331931;28;20129;-57
2023/02/12 02:16:26;;;;;;;10.57;7.18;;;;;;;;;;10359682;28;20567;-58
2023/02/12 02:22:25;;;;;;;11.40;6.97;;;;;;;;;;10365205;28;20025;-57
2023/02/12 02:27:31;;;;;;;;;;;;;;;;;;10375464;28;20113;-57
2023/02/12 02:32:42;;;;;;;8.80;6.65;;;;;;;;;;10358207;28;20289;-57
2023/02/12 02:37:58;;;;;;;11.00;7.20;;;;;;;;;;10363098;28;20060;-57
2023/02/12 02:43:20;;;;;;;10.10;6.65;;;;;;;;;;10371463;28;20144;-57
2023/02/12 02:48:32;;;;;;;13.68;7.70;;;;;;;;;;10370531;28;20045;-58
2023/02/12 02:53:50;;;;;;;11.25;7.43;;;;;;;;;;10371920;28;20024;-57
2023/02/12 02:59:06;;;;;;;10.13;7.15;;;;;;;;;;10372242;28;20053;-58
2023/02/12 03:04:14;;;;;;;9.52;7.25;;;;;;;;;;10361958;28;20053;-57
2023/02/12 03:09:43;;;;;;;9.70;7.03;;;;;;;;;;10372485;28;20037;-57
2023/02/12 03:15:23;;;;;;;17.13;7.32;;;;;;;;;;10364412;28;20121;-57
2023/02/12 03:20:35;;;;;;;9.93;7.18;;;;;;;;;;10371691;28;20034;-54
2023/02/12 03:26:20;;;;;;;8.68;6.80;;;;;;;;;;10369854;28;20017;-56
2023/02/12 03:31:45;;;;;;;12.63;7.15;;;;;;;;;;10369966;28;20042;-57
2023/02/12 03:36:57;;;;;;;8.05;6.75;;;;;;;;;;10364110;28;20440;-56
2023/02/12 03:42:09;;;;;;;11.20;7.18;;;;;;;;;;10371136;28;20033;-56
2023/02/12 03:47:34;;;;;;;10.93;7.28;;;;;;;;;;10370491;28;20355;-58
2023/02/12 03:52:34;;;;;;;10.13;6.88;;;;;;;;;;10369650;28;20030;-57
2023/02/12 03:57:44;;;;;;;9.10;6.75;;;;;;;;;;10369782;28;20445;-57
2023/02/12 04:02:45;;;;;;;9.43;6.95;;;;;;;;;;10368890;28;20165;-57
2023/02/12 04:07:46;;;;;;;10.27;6.75;;;;;;;;;;10369685;28;20049;-57
2023/02/12 04:13:13;;;;;;;9.50;6.70;;;;;;;;;;10368136;28;20137;-57
2023/02/12 04:18:30;;;;;;;8.68;6.68;;;;;;;;;;10335172;28;20046;-57
2023/02/12 04:23:45;;;;;;;9.77;6.75;;;;;;;;;;10367945;28;20026;-57
2023/02/12 04:29:27;;;;;;;9.15;6.65;;;;;;;;;;10368054;28;20100;-57
2023/02/12 04:34:42;;;;;;;11.07;7.00;;;;;;;;;;10365652;28;20088;-57
2023/02/12 04:39:44;;;;;;;10.18;6.85;;;;;;;;;;10360960;28;21120;-57
2023/02/12 04:44:45;;;;;;;9.57;6.55;;;;;;;;;;10366458;28;20461;-56
2023/02/12 04:49:45;;;;;;;10.63;6.75;;;;;;;;;;10368670;28;20052;-54
2023/02/12 04:54:46;;;;;;;8.63;6.50;;;;;;;;;;10368248;28;20033;-55
2023/02/12 04:59:46;;;;;;;8.93;6.95;;;;;;;;;;10366958;28;20022;-56
2023/02/12 05:04:49;;;;;;;8.75;6.82;;;;;;;;;;10366867;28;20025;-58
2023/02/12 05:09:49;;;;;;;13.65;8.90;;;;;;;;;;10367620;28;20037;-58
2023/02/12 05:14:50;;;;;;;14.80;9.85;;;;;;;;;;10358717;28;20154;-58
2023/02/12 05:19:51;;;;;;;16.88;11.05;;;;;;;;;;10359814;28;20494;-58
2023/02/12 05:24:52;;;;;;;18.85;10.55;;;;;;;;;;10362497;28;20103;-58
2023/02/12 05:29:52;;;;;;;15.55;10.30;;;;;;;;;;10360117;28;20037;-57
2023/02/12 05:34:53;;;;;;;15.20;11.60;;;;;;;;;;10361742;28;20053;-58
2023/02/12 05:39:53;;;;;;;15.30;11.05;;;;;;;;;;10350397;28;20429;-60
2023/02/12 05:44:54;;;;;;;30.58;14.35;;;;;;;;;;10362893;28;20169;-58
2023/02/12 05:49:54;;;;;;;23.20;13.75;;;;;;;;;;10362100;28;20041;-59
2023/02/12 05:54:55;;;;;;;27.58;15.57;;;;;;;;;;10365472;28;20030;-59
2023/02/12 05:59:56;;;;;;;20.98;15.52;;;;;;;;;;10366489;28;20022;-60
2023/02/12 06:04:56;;;;;;;24.08;16.40;;;;;;;;;;10366299;28;20115;-58
2023/02/12 06:09:58;;;;;;;28.83;16.83;;;;;;;;;;10360294;28;20026;-60
2023/02/12 06:14:58;;;;;;;28.23;17.85;;;;;;;;;;10363855;28;20120;-58
2023/02/12 06:19:59;;;;;;;28.10;17.83;;;;;;;;;;10373990;28;20029;-58
2023/02/12 06:24:59;;;;;;;24.80;17.25;;;;;;;;;;10372803;28;20026;-58
2023/02/12 06:30:00;;;;;;;25.40;18.00;;;;;;;;;;10373545;28;20056;-58
2023/02/12 06:35:01;;;;;;;28.02;19.40;;;;;;;;;;10372377;28;20050;-58
2023/02/12 06:40:02;;;;;;;25.58;18.58;;;;;;;;;;10373340;28;20045;-58
2023/02/12 06:45:03;;;;;;;29.52;19.02;;;;;;;;;;10372600;28;20106;-58
2023/02/12 06:50:04;;;;;;;27.38;18.67;;;;;;;;;;10372056;28;20088;-58
2023/02/12 06:55:06;;;;;;;24.83;18.15;;;;;;;;;;10371705;28;20374;-58
2023/02/12 07:00:07;;;;;;;26.15;18.70;;;;;;;;;;10372539;28;20101;-58
2023/02/12 07:05:09;;;;;;;26.50;18.45;;;;;;;;;;10371328;28;20018;-58
2023/02/12 07:10:10;;;;;;;27.63;19.25;;;;;;;;;;10371814;28;20112;-58
2023/02/12 07:15:11;;;;;;;26.83;18.40;;;;;;;;;;10363558;28;20033;-58
2023/02/12 07:20:12;;;;;;;25.38;18.65;;;;;;;;;;10370770;28;20432;-58
2023/02/12 07:25:12;;;;;;;28.70;19.15;;;;;;;;;;10370478;28;20037;-57
2023/02/12 07:30:13;;;;;;;26.05;18.90;;;;;;;;;;10371254;28;20022;-58
2023/02/12 07:35:14;;;;;;;27.30;18.63;;;;;;;;;;10370296;28;20412;-58
2023/02/12 07:40:15;;;;;;;26.90;18.60;;;;;;;;;;10370995;28;20577;-57
2023/02/12 07:45:15;;;;;;;27.10;18.70;;;;;;;;;;10368930;28;20026;-58
2023/02/12 07:50:16;;;;;;;26.48;18.45;;;;;;;;;;10367685;28;20065;-58
2023/02/12 07:55:17;;;;;;;25.73;18.05;;;;;;;;;;10370540;28;20091;-58
2023/02/12 08:00:18;;;;;;;26.45;17.40;;;;;;;;;;10369206;28;20037;-58
2023/02/12 08:05:19;;;;;;;20.48;16.15;;;;;;;;;;10369381;28;20033;-58
2023/02/12 08:10:22;;;;;;;22.42;15.07;;;;;;;;;;10368808;28;20061;-58
2023/02/12 08:15:23;;;;;;;23.63;14.77;;;;;;;;;;10365633;28;20042;-58
2023/02/12 08:20:23;;;;;;;21.50;14.90;;;;;;;;;;10369130;28;20045;-58
2023/02/12 08:25:24;;;;;;;19.40;13.60;;;;;;;;;;10368684;28;20056;-57
2023/02/12 08:30:24;;;;;;;22.85;15.40;;;;;;;;;;10368311;28;20301;-57
2023/02/12 08:35:26;;;;;;;24.77;15.18;;;;;;;;;;10367429;28;20100;-58
2023/02/12 08:40:26;;;;;;;24.33;15.52;;;;;;;;;;10368420;28;20033;-58
2023/02/12 08:45:27;;;;;;;29.25;13.98;;;;;;;;;;10367878;28;20044;-58
2023/02/12 08:50:27;;;;;;;25.17;14.70;;;;;;;;;;10367112;28;20026;-58
2023/02/12 08:55:28;;;;;;;23.23;13.73;;;;;;;;;;10368441;28;20052;-58
2023/02/12 09:00:28;;;;;;;22.13;13.35;;;;;;;;;;10365944;28;20236;-58
2023/02/12 09:05:29;;;;;;;19.98;13.10;;;;;;;;;;10367231;28;20033;-57
2023/02/12 09:10:30;;;;;;;23.55;14.48;;;;;;;;;;10365085;28;20030;-57
2023/02/12 09:15:30;;;;;;;22.00;14.80;;;;;;;;;;10361516;28;20037;-57
2023/02/12 09:20:32;;;;;;;24.45;14.50;;;;;;;;;;10366622;28;20053;-57
2023/02/12 09:25:33;;;;;;;22.25;14.95;;;;;;;;;;10365852;28;20022;-57
2023/02/12 09:30:36;;;;;;;25.83;14.45;;;;;;;;;;10363289;28;20509;-57
2023/02/12 09:35:38;;;;;;;23.55;14.68;;;;;;;;;;10363058;28;20178;-57
2023/02/12 09:41:20;;;;;;;23.65;15.00;;;;;;;;;;10366702;28;20038;-57
2023/02/12 09:46:42;;;;;;;18.02;13.23;;;;;;;;;;10358428;28;20014;-58
2023/02/12 09:51:52;;;;;;;27.20;13.98;;;;;;;;;;10366171;28;20026;-57
2023/02/12 09:56:57;;;;;;;23.30;14.13;;;;;;;;;;10365281;28;20116;-57
2023/02/12 10:01:58;;;;;;;19.67;13.45;;;;;;;;;;10366286;28;20021;-57
2023/02/12 10:07:26;;;;;;;24.20;13.45;;;;;;;;;;10366474;28;20030;-57
2023/02/12 10:13:01;;;;;;;21.48;13.55;;;;;;;;;;10364787;28;20108;-57
2023/02/12 10:18:38;;;;;;;19.75;13.55;;;;;;;;;;10357991;28;20054;-57
2023/02/12 10:24:33;;;;;;;19.35;13.48;;;;;;;;;;10357571;28;20441;-57
2023/02/12 10:29:41;;;;;;;17.05;13.20;;;;;;;;;;10357214;28;20038;-57
2023/02/12 10:34:41;;;;;;;20.17;13.32;;;;;;;;;;10378729;23;20042;-62
2023/02/12 10:39:51;;;;;;;17.48;12.27;;;;;;;;;;10415537;28;20042;-61
2023/02/12 10:44:51;;;;;;;23.20;13.32;;;;;;;;;;10414425;28;20026;-61
2023/02/12 10:49:59;;;;;;;20.48;14.10;;;;;;;;;;10370728;28;20389;-61
2023/02/12 10:55:00;;;;;;;19.10;13.43;;;;;;;;;;10372348;28;20105;-61
2023/02/12 11:00:25;;;;;;;21.90;13.52;;;;;;;;;;10365923;28;20025;-61
2023/02/12 11:05:30;;;;;;;22.15;13.38;;;;;;;;;;10383174;28;20028;-61
2023/02/12 11:10:39;;;;;;;19.70;12.85;;;;;;;;;;10382066;28;20030;-61
2023/02/12 11:15:47;;;;;;;17.45;12.43;;;;;;;;;;10371450;28;20036;-61
2023/02/12 11:20:51;;;;;;;18.23;12.37;;;;;;;;;;10380911;28;20378;-61
2023/02/12 11:26:18;;;;;;;18.90;12.55;;;;;;;;;;10387707;28;20072;-61
2023/02/12 11:31:25;;;;;;;17.33;12.90;;;;;;;;;;10380504;28;20363;-61
2023/02/12 11:36:26;;;;;;;16.67;12.88;;;;;;;;;;10378284;28;20096;-61
2023/02/12 11:41:36;;;;;;;17.20;11.52;;;;;;;;;;10383290;28;20029;-61
2023/02/12 11:46:38;;;;;;;15.20;11.52;;;;;;;;;;10392145;28;20017;-61
2023/02/12 11:51:39;;;;;;;16.13;11.52;;;;;;;;;;10377558;28;20374;-61
2023/02/12 11:56:45;;;;;;;17.10;12.20;;;;;;;;;;10377869;28;20026;-61
2023/02/12 12:01:49;;;;;;;15.30;10.90;;;;;;;;;;10378473;28;20057;-61
2023/02/12 12:07:11;;;;;;;17.20;11.63;;;;;;;;;;10380259;28;20030;-61
2023/02/12 12:12:47;;;;;;;17.75;11.93;;;;;;;;;;10375537;28;20493;-61
2023/02/12 12:24:01;;;;;;;16.30;11.32;;;;;;;;;;10390433;28;20025;-61
2023/02/12 12:29:26;;;;;;;17.92;11.55;;;;;;;;;;10382714;28;20026;-61
2023/02/12 12:34:27;;;;;;;14.68;11.10;;;;;;;;;;10384901;28;20022;-62
2023/02/12 12:39:37;;;;;;;16.02;11.25;;;;;;;;;;10374597;28;20026;-61
2023/02/12 12:45:05;;;;;;;20.30;11.30;;;;;;;;;;10372860;28;20042;-61
2023/02/12 12:50:11;;;;;;;16.88;11.65;;;;;;;;;;10373574;28;20029;-61
2023/02/12 12:55:50;;;;;;;16.73;10.88;;;;;;;;;;10381756;28;20030;-61
2023/02/12 13:01:45;;;;;;;14.20;11.07;;;;;;;;;;10367829;28;20025;-61
2023/02/12 13:07:00;;;;;;;15.85;10.95;;;;;;;;;;10376153;28;20121;-61
2023/02/12 13:12:16;;;;;;;15.73;11.07;;;;;;;;;;10387354;28;20038;-61
2023/02/12 13:17:16;;;;;;;14.38;10.68;;;;;;;;;;10365850;28;20030;-61
2023/02/12 13:22:40;;;;;;;16.17;11.25;;;;;;;;;;10366594;28;20109;-61
2023/02/12 13:27:42;;;;;;;15.07;10.52;;;;;;;;;;10330521;28;20588;-61
2023/02/12 13:32:57;;;;;;;13.15;10.63;;;;;;;;;;10365838;28;20109;-61
2023/02/12 13:38:01;;;;;;;13.45;9.75;;;;;;;;;;10365146;28;20046;-61
2023/02/12 13:43:14;;;;;;;12.25;9.70;;;;;;;;;;10366465;28;20603;-61
2023/02/12 13:48:29;;;;;;;15.43;10.15;;;;;;;;;;10367745;28;20022;-61
2023/02/12 13:53:52;;;;;;;16.15;9.90;;;;;;;;;;10367295;28;20397;-61
2023/02/12 13:58:54;;;;;;;13.55;8.95;;;;;;;;;;10367393;28;20036;-61
2023/02/12 14:03:55;;;;;;;16.40;9.00;;;;;;;;;;10362911;28;20076;-61
2023/02/12 14:09:10;;;;;;;10.63;8.13;;;;;;;;;;10367453;28;20017;-61
2023/02/12 14:14:11;;;;;;;13.32;8.52;;;;;;;;;;10361758;28;20242;-61
2023/02/12 14:19:54;;;;;;;12.73;8.85;;;;;;;;;;10386407;28;20263;-61
2023/02/12 14:24:57;;;;;;;12.35;9.35;;;;;;;;;;10386413;28;20489;-61
2023/02/12 14:30:32;;;;;;;11.88;8.40;;;;;;;;;;10366054;28;20393;-61
2023/02/12 14:35:42;;;;;;;12.23;8.70;;;;;;;;;;10366355;28;20041;-61
2023/02/12 14:40:47;;;;;;;10.75;7.93;;;;;;;;;;10387262;28;20158;-61
2023/02/12 14:45:48;;;;;;;10.25;8.60;;;;;;;;;;10389951;28;20029;-61
2023/02/12 14:50:51;;;;;;;10.35;7.75;;;;;;;;;;10405808;28;20026;-61
2023/02/12 14:55:51;;;;;;;10.77;7.97;;;;;;;;;;10395152;28;20069;-61
2023/02/12 15:00:55;;;;;;;11.65;8.13;;;;;;;;;;10376667;28;20488;-61
2023/02/12 15:06:07;;;;;;;11.40;8.35;;;;;;;;;;10378633;28;20025;-61
2023/02/12 15:11:38;;;;;;;11.70;7.65;;;;;;;;;;10386912;28;20021;-61
2023/02/12 15:17:14;;;;;;;10.32;7.75;;;;;;;;;;10369906;28;20117;-61
2023/02/12 15:22:29;;;;;;;10.07;7.65;;;;;;;;;;10365226;28;20026;-61
2023/02/12 15:27:29;;;;;;;9.77;7.15;;;;;;;;;;10383094;28;20030;-61
2023/02/12 15:32:30;;;;;;;10.48;7.63;;;;;;;;;;10370319;28;20022;-61
2023/02/12 15:37:31;;;;;;;9.88;6.95;;;;;;;;;;10376780;28;20524;-61
2023/02/12 15:42:41;;;;;;;9.93;7.60;;;;;;;;;;10380139;28;20068;-61
2023/02/12 15:47:43;;;;;;;9.43;7.38;;;;;;;;;;10358188;28;20406;-61
2023/02/12 15:52:46;;;;;;;9.77;7.30;;;;;;;;;;10369639;28;20476;-61
2023/02/12 15:58:25;;;;;;;8.77;6.82;;;;;;;;;;10369853;28;20058;-61
2023/02/12 16:03:32;;;;;;;10.77;7.10;;;;;;;;;;10369360;28;20103;-61
2023/02/12 16:08:34;;;;;;;10.07;6.88;;;;;;;;;;10368987;28;20103;-61
2023/02/12 16:13:36;;;;;;;21.45;6.95;;;;;;;;;;10370194;28;20470;-61
2023/02/12 16:18:37;;;;;;;10.15;6.75;;;;;;;;;;10360693;28;20030;-61
2023/02/12 16:23:43;;;;;;;9.48;6.25;;;;;;;;;;10382132;28;20029;-61
2023/02/12 16:28:47;;;;;;;9.55;6.25;;;;;;;;;;10378014;28;20037;-61
2023/02/12 16:33:52;;;;;;;8.13;6.75;;;;;;;;;;10368849;28;20065;-61
2023/02/12 16:39:02;;;;;;;12.57;6.30;;;;;;;;;;10367632;28;20077;-61
2023/02/12 16:44:02;;;;;;;8.88;5.95;;;;;;;;;;10365654;28;20026;-61
2023/02/12 16:49:03;;;;;;;8.10;6.50;;;;;;;;;;10366663;28;20033;-61
2023/02/12 16:54:22;;;;;;;6.90;6.05;;;;;;;;;;10367175;28;20033;-61
2023/02/12 16:59:23;;;;;;;6.55;5.65;;;;;;;;;;10361983;28;20425;-61
2023/02/12 17:04:24;;;;;;;7.30;6.07;;;;;;;;;;10366904;28;20076;-61
2023/02/12 17:09:25;;;;;;;8.65;5.90;;;;;;;;;;10368009;28;20475;-61
2023/02/12 17:14:25;;;;;;;8.68;5.43;;;;;;;;;;10360501;28;20042;-62
2023/02/12 17:19:26;;;;;;;6.68;5.20;;;;;;;;;;10360236;28;20381;-61
2023/02/12 17:24:30;;;;;;;7.05;5.90;;;;;;;;;;10367094;28;20480;-61
2023/02/12 17:29:31;;;;;;;6.43;5.75;;;;;;;;;;10364244;28;20383;-60
2023/02/12 17:34:31;;;;;;;12.90;6.95;;;;;;;;;;10372887;28;20036;-61
2023/02/12 17:39:32;;;;;;;17.45;6.20;;;;;;;;;;10364500;28;20034;-61
2023/02/12 17:44:33;;;;;;;20.50;6.07;;;;;;;;;;10364386;28;20084;-61
2023/02/12 17:49:34;;;;;;;14.05;6.32;;;;;;;;;;10365005;28;20115;-61
2023/02/12 17:54:35;;;;;;;14.88;6.00;;;;;;;;;;10366189;28;20022;-61
2023/02/12 17:59:36;;;;;;;14.25;6.57;;;;;;;;;;10365803;28;20025;-61
2023/02/12 18:04:37;;;;;;;6.55;5.60;;;;;;;;;;10364362;28;20425;-61
2023/02/12 18:09:38;;;;;;;12.52;6.18;;;;;;;;;;10367547;28;20026;-61
2023/02/12 18:14:39;;;;;;;18.13;5.75;;;;;;;;;;10372482;28;20105;-61
2023/02/12 18:19:40;;;;;;;12.80;5.28;;;;;;;;;;10371998;28;20034;-61
2023/02/12 18:24:42;;;;;;;9.00;5.25;;;;;;;;;;10388744;28;20160;-61
2023/02/12 18:29:43;;;;;;;7.63;5.40;;;;;;;;;;10373833;28;20124;-61
2023/02/12 18:34:44;;;;;;;9.73;5.32;;;;;;;;;;10370359;28;20684;-61
2023/02/12 18:39:45;;;;;;;9.20;5.43;;;;;;;;;;10373718;28;20077;-62
2023/02/12 18:44:46;;;;;;;11.13;6.05;;;;;;;;;;10371438;28;20109;-63
2023/02/12 18:49:47;;;;;;;7.50;5.50;;;;;;;;;;10372279;28;20096;-63
2023/02/12 18:54:47;;;;;;;9.95;5.57;;;;;;;;;;10373844;28;20026;-62
2023/02/12 18:59:48;;;;;;;7.63;5.20;;;;;;;;;;10371045;28;20385;-64
2023/02/12 19:04:48;;;;;;;7.20;5.32;;;;;;;;;;10371650;28;20048;-62
2023/02/12 19:09:49;;;;;;;7.40;5.55;;;;;;;;;;10371170;28;20050;-62
2023/02/12 19:14:50;;;;;;;9.07;5.47;;;;;;;;;;10370769;28;20030;-64
2023/02/12 19:19:51;;;;;;;13.88;5.75;;;;;;;;;;10370128;28;20030;-64
2023/02/12 19:24:51;;;;;;;11.65;5.65;;;;;;;;;;10365115;28;20030;-64
2023/02/12 19:29:52;;;;;;;8.15;5.28;;;;;;;;;;10371736;28;20076;-64
2023/02/12 19:34:53;;;;;;;9.70;5.32;;;;;;;;;;10370653;28;20042;-63
2023/02/12 19:39:53;;;;;;;8.73;5.53;;;;;;;;;;10377927;28;20022;-62
2023/02/12 19:44:54;;;;;;;7.82;4.82;;;;;;;;;;10369816;28;20018;-62
2023/02/12 19:49:54;;;;;;;9.82;5.55;;;;;;;;;;10370740;28;20025;-62
2023/02/12 19:54:55;;;;;;;11.23;4.80;;;;;;;;;;10361858;28;20030;-62
2023/02/12 19:59:55;;;;;;;6.07;5.13;;;;;;;;;;10359482;28;20703;-63
2023/02/12 20:04:56;;;;;;;14.35;5.35;;;;;;;;;;10368340;28;20539;-62
2023/02/12 20:09:56;;;;;;;6.43;5.47;;;;;;;;;;10375203;28;20079;-62
2023/02/12 20:15:01;;;;;;;10.82;6.72;;;;;;;;;;10365557;28;20311;-62
2023/02/12 20:20:04;;;;;;;10.30;7.43;;;;;;;;;;10366325;28;20633;-63
2023/02/12 20:25:05;;;;;;;11.88;6.65;;;;;;;;;;10364773;28;20042;-63
2023/02/12 20:30:07;;;;;;;13.15;7.45;;;;;;;;;;10367484;28;20465;-64
2023/02/12 20:35:07;;;;;;;16.95;7.60;;;;;;;;;;10367226;28;20046;-63
2023/02/12 20:40:08;;;;;;;29.25;8.38;;;;;;;;;;10363428;28;21170;-60
2023/02/12 20:45:09;;;;;;;20.92;8.55;;;;;;;;;;10362882;28;20092;-64
2023/02/12 20:50:11;;;;;;;23.95;8.32;;;;;;;;;;10365412;28;20044;-65
2023/02/12 20:55:11;;;;;;;15.68;7.90;;;;;;;;;;10366070;28;20029;-63
2023/02/12 21:00:13;;;;;;;20.98;7.70;;;;;;;;;;10354788;28;20041;-64
2023/02/12 21:05:14;;;;;;;18.38;7.97;;;;;;;;;;10360282;28;20522;-62
2023/02/12 21:10:16;;;;;;;15.32;8.27;;;;;;;;;;10363698;28;20033;-63
2023/02/12 21:15:17;;;;;;;14.30;7.57;;;;;;;;;;10357238;28;20173;-63
2023/02/12 21:20:17;;;;;;;18.13;7.25;;;;;;;;;;10350609;28;20607;-63
2023/02/12 21:25:18;;;;;;;13.73;6.88;;;;;;;;;;10353842;28;20049;-63
2023/02/12 21:30:18;;;;;;;18.98;7.88;;;;;;;;;;10359291;28;20030;-62
2023/02/12 21:35:19;;;;;;;17.92;7.75;;;;;;;;;;10357062;28;20386;-62
2023/02/12 21:40:20;;;;;;;12.10;6.88;;;;;;;;;;10368706;28;20421;-63
2023/02/12 21:45:21;;;;;;;13.23;7.15;;;;;;;;;;10363092;28;20134;-63
2023/02/12 21:50:21;;;;;;;18.98;8.43;;;;;;;;;;10373620;28;20173;-65
2023/02/12 21:55:22;;;;;;;12.00;7.05;;;;;;;;;;10361905;28;20041;-65
2023/02/12 22:00:23;;;;;;;15.82;8.02;;;;;;;;;;10359152;28;20037;-65
2023/02/12 22:05:23;;;;;;;14.52;7.70;;;;;;;;;;10358827;28;20120;-62
2023/02/12 22:10:24;;;;;;;13.95;8.02;;;;;;;;;;10356530;28;20108;-63
2023/02/12 22:15:25;;;;;;;14.85;7.32;;;;;;;;;;10355775;28;20112;-62
2023/02/12 22:20:25;;;;;;;14.40;7.63;;;;;;;;;;10358051;28;20030;-63
2023/02/12 22:25:26;;;;;;;16.65;7.97;;;;;;;;;;10361020;28;20045;-62
2023/02/12 22:30:27;;;;;;;16.27;8.57;;;;;;;;;;10339876;28;20398;-64
2023/02/12 22:35:27;;;;;;;14.55;8.18;;;;;;;;;;10348176;28;20191;-63
2023/02/12 22:40:28;;;;;;;16.20;8.77;;;;;;;;;;10342204;28;20041;-64
2023/02/12 22:45:29;;;;;;;24.90;8.55;;;;;;;;;;10340758;28;20034;-64
2023/02/12 22:50:30;;;;;;;14.45;7.82;;;;;;;;;;10332462;28;20090;-65
2023/02/12 22:55:31;;;;;;;20.92;7.70;;;;;;;;;;10341440;28;20101;-65
2023/02/12 23:00:31;;;;;;;20.73;8.73;;;;;;;;;;10365795;28;20026;-65
2023/02/12 23:05:37;;;;;;;13.23;7.40;;;;;;;;;;10373330;28;20025;-64
2023/02/12 23:10:37;;;;;;;13.82;7.68;;;;;;;;;;10373739;28;20072;-65
2023/02/12 23:15:38;;;;;;;13.27;7.40;;;;;;;;;;10374580;28;20037;-64
2023/02/12 23:20:39;;;;;;;13.10;7.35;;;;;;;;;;10378298;28;20465;-65
2023/02/12 23:25:40;;;;;;;16.42;7.82;;;;;;;;;;10372511;28;20048;-64
2023/02/12 23:30:41;;;;;;;15.52;7.72;;;;;;;;;;10380101;28;20065;-64
2023/02/12 23:35:43;;;;;;;15.73;7.43;;;;;;;;;;10373738;28;20596;-64
2023/02/12 23:40:46;;;;;;;12.63;7.38;;;;;;;;;;10380246;28;20029;-65
2023/02/12 23:45:46;;;;;;;13.48;7.50;;;;;;;;;;10390204;28;20128;-65
2023/02/12 23:50:47;;;;;;;17.65;7.70;;;;;;;;;;10370858;28;20072;-65
2023/02/12 23:55:50;;;;;;;14.63;6.75;;;;;;;;;;10358065;28;20124;-64
